Time;durP1;ratioP1;P1;durP2;ratioP2;P2;SDS_P1;SDS_P2;PMS_P1;PMS_P2;Temp;Humidity;BMP_temperature;BMP_pressure;BME280_temperature;BME280_humidity;BME280_pressure;Samples;Min_cycle;Max_cycle;Signal;HPM_P1;HPM_P2
2023/05/21 00:00:19;;;;;;;4.43;3.67;;;15.30;99.90;;;;;;5110083;27;20398;-90
2023/05/21 00:02:45;;;;;;;4.75;3.63;;;15.00;99.90;;;;;;5110027;27;20467;-89
2023/05/21 00:05:14;;;;;;;4.40;3.70;;;15.00;99.90;;;;;;5126335;27;20414;-89
2023/05/21 00:07:40;;;;;;;4.63;4.05;;;15.00;99.90;;;;;;5110383;27;20418;-90
2023/05/21 00:10:06;;;;;;;6.63;3.75;;;15.00;99.90;;;;;;5108973;27;20436;-90
2023/05/21 00:12:32;;;;;;;4.82;3.80;;;15.00;99.90;;;;;;5110590;27;20477;-89
2023/05/21 00:14:58;;;;;;;4.20;3.40;;;15.10;99.90;;;;;;5108163;28;20394;-89
2023/05/21 00:17:24;;;;;;;4.85;4.30;;;14.90;99.90;;;;;;5109841;27;20938;-92
2023/05/21 00:19:51;;;;;;;6.72;4.38;;;15.10;99.90;;;;;;5109872;27;20394;-89
2023/05/21 00:22:16;;;;;;;5.68;3.92;;;14.90;99.90;;;;;;5109409;27;20418;-91
2023/05/21 00:24:44;;;;;;;6.47;4.03;;;15.30;99.90;;;;;;5109898;27;20409;-90
2023/05/21 00:27:13;;;;;;;4.65;3.90;;;14.90;99.90;;;;;;5108819;27;20391;-90
2023/05/21 00:29:39;;;;;;;5.70;4.23;;;14.90;99.90;;;;;;5110004;27;20394;-90
2023/05/21 00:32:05;;;;;;;4.68;3.65;;;15.20;99.90;;;;;;5108895;27;20399;-90
2023/05/21 00:34:30;;;;;;;4.80;3.92;;;14.90;99.90;;;;;;5110328;27;20430;-90
2023/05/21 00:36:56;;;;;;;6.40;3.90;;;14.90;99.90;;;;;;5109673;27;20483;-89
2023/05/21 00:39:22;;;;;;;5.22;3.97;;;14.90;99.90;;;;;;5109926;27;20439;-91
2023/05/21 00:41:48;;;;;;;5.70;4.00;;;14.90;99.90;;;;;;5109736;28;20501;-90
2023/05/21 00:44:17;;;;;;;5.47;4.10;;;14.80;99.90;;;;;;5108596;27;20621;-90
2023/05/21 00:46:43;;;;;;;7.03;3.70;;;14.90;99.90;;;;;;5110090;28;20410;-89
2023/05/21 00:49:10;;;;;;;6.22;4.03;;;15.00;99.90;;;;;;5108758;28;20526;-90
2023/05/21 00:51:36;;;;;;;5.07;3.92;;;14.80;99.90;;;;;;5110113;28;20447;-91
2023/05/21 00:54:02;;;;;;;4.43;4.03;;;14.80;99.90;;;;;;5109234;28;20406;-90
2023/05/21 00:56:28;;;;;;;4.22;3.63;;;14.80;99.90;;;;;;5109442;28;20398;-91
2023/05/21 00:58:56;;;;;;;5.25;3.63;;;14.80;99.90;;;;;;5109422;28;20739;-89
2023/05/21 01:01:24;;;;;;;4.37;3.50;;;14.80;99.90;;;;;;5108716;28;20521;-90
2023/05/21 01:03:56;;;;;;;5.30;3.75;;;14.80;99.90;;;;;;5109972;28;20793;-90
2023/05/21 01:06:22;;;;;;;5.85;4.10;;;14.80;99.90;;;;;;5108296;28;20399;-89
2023/05/21 01:08:49;;;;;;;4.93;3.97;;;14.80;99.90;;;;;;5109623;28;20888;-89
2023/05/21 01:11:16;;;;;;;5.40;3.97;;;14.80;99.90;;;;;;5108655;28;20424;-89
2023/05/21 01:13:42;;;;;;;4.82;3.83;;;14.80;99.90;;;;;;5109018;28;20398;-90
2023/05/21 01:16:12;;;;;;;4.38;3.58;;;14.80;99.90;;;;;;5109121;28;20398;-90
2023/05/21 01:18:38;;;;;;;4.95;4.28;;;14.80;99.90;;;;;;5108752;28;20391;-89
2023/05/21 01:21:06;;;;;;;5.28;3.90;;;14.80;99.90;;;;;;5109135;28;20936;-90
2023/05/21 01:23:32;;;;;;;4.35;3.60;;;14.70;99.90;;;;;;5109500;27;20482;-89
2023/05/21 01:25:58;;;;;;;5.78;3.60;;;14.80;99.90;;;;;;5113461;27;20400;-91
2023/05/21 01:28:23;;;;;;;5.18;3.50;;;14.90;99.90;;;;;;5115824;27;20393;-89
2023/05/21 01:30:49;;;;;;;6.73;3.87;;;14.70;99.90;;;;;;5116895;27;20401;-89
2023/05/21 01:33:27;;;;;;;5.13;3.20;;;15.10;99.90;;;;;;5116295;27;20392;-89
2023/05/21 01:35:55;;;;;;;6.70;3.88;;;14.70;99.90;;;;;;5115844;27;20404;-90
2023/05/21 01:38:33;;;;;;;6.25;4.15;;;14.90;99.90;;;;;;5134057;27;20456;-89
2023/05/21 01:41:06;;;;;;;6.63;3.90;;;14.70;99.90;;;;;;5133014;27;20504;-89
2023/05/21 01:43:35;;;;;;;5.45;4.00;;;14.70;99.90;;;;;;5116733;27;20501;-89
2023/05/21 01:46:01;;;;;;;5.60;3.92;;;14.70;99.90;;;;;;5115577;27;20515;-90
2023/05/21 01:48:28;;;;;;;6.28;4.22;;;14.80;99.90;;;;;;5116104;27;20405;-90
2023/05/21 01:50:56;;;;;;;6.57;4.60;;;14.70;99.90;;;;;;5116409;27;20396;-89
2023/05/21 01:53:22;;;;;;;6.25;4.90;;;14.70;99.90;;;;;;5115329;27;20404;-91
2023/05/21 01:55:48;;;;;;;7.43;5.10;;;14.60;99.90;;;;;;5116590;27;20404;-90
2023/05/21 01:58:17;;;;;;;6.03;5.13;;;14.60;99.90;;;;;;5115549;27;20432;-90
2023/05/21 02:00:44;;;;;;;7.17;5.33;;;14.60;99.90;;;;;;5116192;27;20405;-90
2023/05/21 02:03:10;;;;;;;7.15;5.60;;;14.70;99.90;;;;;;5115008;27;20551;-89
2023/05/21 02:05:36;;;;;;;7.40;5.80;;;14.60;99.90;;;;;;5116332;27;20883;-90
2023/05/21 02:08:02;;;;;;;8.02;6.25;;;14.60;99.90;;;;;;5115328;27;20462;-90
2023/05/21 02:10:27;;;;;;;7.18;5.70;;;14.60;99.90;;;;;;5115393;27;21002;-90
2023/05/21 02:12:53;;;;;;;9.73;6.00;;;14.60;99.90;;;;;;5115972;27;20422;-90
2023/05/21 02:15:18;;;;;;;8.20;6.90;;;14.60;99.90;;;;;;5114760;27;20424;-90
2023/05/21 02:17:45;;;;;;;7.53;6.20;;;14.60;99.90;;;;;;5116160;27;20397;-91
2023/05/21 02:20:12;;;;;;;9.48;6.65;;;14.60;99.90;;;;;;5114761;27;20441;-90
2023/05/21 02:22:42;;;;;;;8.10;7.30;;;14.60;99.90;;;;;;5115643;27;20421;-90
2023/05/21 02:25:09;;;;;;;10.18;6.90;;;14.60;99.90;;;;;;5115008;27;20404;-90
2023/05/21 02:27:36;;;;;;;11.53;7.53;;;14.50;99.90;;;;;;5114782;27;20393;-90
2023/05/21 02:30:10;;;;;;;9.63;7.07;;;14.80;99.90;;;;;;5115126;27;20629;-90
2023/05/21 02:32:36;;;;;;;10.80;6.83;;;14.50;99.90;;;;;;5131951;27;20401;-90
2023/05/21 02:35:03;;;;;;;9.80;7.40;;;14.60;99.90;;;;;;5116019;27;20903;-89
2023/05/21 02:37:32;;;;;;;9.90;6.88;;;14.60;99.90;;;;;;5113985;27;20412;-90
2023/05/21 02:39:58;;;;;;;11.35;7.43;;;14.50;99.90;;;;;;5114736;27;20409;-89
2023/05/21 02:42:25;;;;;;;11.90;7.25;;;14.50;99.90;;;;;;5114447;27;20417;-90
2023/05/21 02:44:51;;;;;;;9.75;7.13;;;14.60;99.90;;;;;;5114838;27;20986;-89
2023/05/21 02:47:20;;;;;;;10.38;7.10;;;14.70;99.90;;;;;;5115695;27;20393;-90
2023/05/21 02:49:45;;;;;;;9.70;6.70;;;14.60;99.90;;;;;;5114369;27;20405;-89
2023/05/21 02:52:11;;;;;;;9.98;7.55;;;14.50;99.90;;;;;;5115444;27;20514;-89
2023/05/21 02:54:37;;;;;;;11.95;7.13;;;14.50;99.90;;;;;;5113664;27;20400;-90
2023/05/21 02:57:02;;;;;;;12.20;7.10;;;14.50;99.90;;;;;;5115403;27;20917;-89
2023/05/21 02:59:28;;;;;;;11.23;7.47;;;14.50;99.90;;;;;;5114601;27;20408;-90
2023/05/21 03:01:54;;;;;;;12.30;7.07;;;14.50;99.90;;;;;;5114828;27;20590;-90
2023/05/21 03:04:22;;;;;;;13.53;7.07;;;14.50;99.90;;;;;;5115230;27;20408;-90
2023/05/21 03:06:53;;;;;;;12.63;7.27;;;14.40;99.90;;;;;;5114158;27;20413;-90
2023/05/21 03:09:22;;;;;;;11.95;6.90;;;14.50;99.90;;;;;;5114601;27;20444;-90
2023/05/21 03:11:49;;;;;;;10.02;7.07;;;14.40;99.90;;;;;;5114273;27;20472;-90
2023/05/21 03:14:15;;;;;;;10.25;7.15;;;14.30;99.90;;;;;;5114939;27;20401;-91
2023/05/21 03:16:42;;;;;;;13.48;7.75;;;14.30;99.90;;;;;;5114009;27;20479;-90
2023/05/21 03:19:10;;;;;;;10.77;7.63;;;14.30;99.90;;;;;;5114625;27;20400;-91
2023/05/21 03:21:36;;;;;;;10.32;7.85;;;14.20;99.90;;;;;;5114019;27;20420;-89
2023/05/21 03:24:03;;;;;;;15.50;8.65;;;14.20;99.90;;;;;;5130776;27;20408;-89
2023/05/21 03:26:29;;;;;;;11.23;8.35;;;14.10;99.90;;;;;;5114624;27;20483;-90
2023/05/21 03:28:55;;;;;;;12.52;8.27;;;14.10;99.90;;;;;;5113617;27;20436;-91
2023/05/21 03:31:25;;;;;;;14.68;8.77;;;14.20;99.90;;;;;;5114917;27;20397;-90
2023/05/21 03:33:51;;;;;;;12.00;8.20;;;14.00;99.90;;;;;;5113626;27;20393;-90
2023/05/21 03:36:17;;;;;;;15.70;9.25;;;13.90;99.90;;;;;;5114469;27;20393;-91
2023/05/21 03:38:42;;;;;;;13.47;8.80;;;14.00;99.90;;;;;;5114355;27;20925;-90
2023/05/21 03:41:09;;;;;;;12.03;8.70;;;13.90;99.90;;;;;;5114318;27;20457;-90
2023/05/21 03:43:35;;;;;;;13.32;9.52;;;13.90;99.90;;;;;;5114038;27;20397;-90
2023/05/21 03:46:01;;;;;;;11.53;8.87;;;13.90;99.90;;;;;;5113442;27;20823;-91
2023/05/21 03:48:26;;;;;;;12.80;8.35;;;13.90;99.90;;;;;;5114500;27;20409;-91
2023/05/21 03:50:52;;;;;;;11.45;9.00;;;14.10;99.90;;;;;;5112864;27;20500;-91
2023/05/21 03:53:18;;;;;;;13.00;8.87;;;13.90;99.90;;;;;;5114216;27;20833;-91
2023/05/21 03:55:44;;;;;;;13.13;9.00;;;13.90;99.90;;;;;;5113381;27;20401;-90
2023/05/21 03:58:09;;;;;;;11.70;8.45;;;14.00;99.90;;;;;;5113254;27;20604;-89
2023/05/21 04:00:39;;;;;;;13.90;9.07;;;14.00;99.90;;;;;;5113587;27;20550;-91
2023/05/21 04:03:05;;;;;;;13.13;8.10;;;14.30;99.90;;;;;;5113078;27;20405;-90
2023/05/21 04:05:32;;;;;;;15.45;8.27;;;14.10;99.90;;;;;;5114075;27;20397;-90
2023/05/21 04:07:58;;;;;;;11.82;8.20;;;14.20;99.90;;;;;;5112764;27;20401;-90
2023/05/21 04:10:24;;;;;;;11.85;8.07;;;14.00;99.90;;;;;;5114637;27;20404;-90
2023/05/21 04:12:51;;;;;;;11.80;7.80;;;14.00;99.90;;;;;;5112461;27;20401;-89
2023/05/21 04:15:17;;;;;;;11.68;7.88;;;14.00;99.90;;;;;;5113667;27;20405;-89
2023/05/21 04:17:44;;;;;;;10.55;7.47;;;14.00;99.90;;;;;;5113244;27;20393;-90
2023/05/21 04:20:12;;;;;;;12.07;7.22;;;14.00;99.90;;;;;;5112873;27;20397;-89
2023/05/21 04:22:41;;;;;;;10.40;6.43;;;14.00;99.90;;;;;;5113660;27;21073;-90
2023/05/21 04:25:07;;;;;;;13.85;7.18;;;14.10;99.90;;;;;;5112150;27;20419;-90
2023/05/21 04:27:33;;;;;;;10.73;6.85;;;14.10;99.90;;;;;;5113609;27;20410;-90
2023/05/21 04:29:59;;;;;;;11.70;6.53;;;14.10;99.90;;;;;;5112865;27;20428;-90
2023/05/21 04:32:24;;;;;;;10.38;6.47;;;14.10;99.90;;;;;;5113848;27;20406;-90
2023/05/21 04:34:50;;;;;;;12.53;6.50;;;14.30;99.90;;;;;;5113105;27;20796;-90
2023/05/21 04:37:18;;;;;;;11.88;6.47;;;14.40;99.90;;;;;;5112748;27;20430;-91
2023/05/21 04:39:45;;;;;;;9.27;6.07;;;14.40;99.90;;;;;;5113523;27;20800;-91
2023/05/21 04:42:11;;;;;;;9.55;5.93;;;14.30;99.90;;;;;;5112492;27;20417;-90
2023/05/21 04:44:39;;;;;;;10.40;5.75;;;14.40;99.90;;;;;;5113811;27;20492;-90
2023/05/21 04:47:05;;;;;;;9.68;5.70;;;14.30;99.90;;;;;;5112017;27;20401;-90
2023/05/21 04:49:33;;;;;;;10.32;5.60;;;14.40;99.90;;;;;;5113765;27;20895;-92
2023/05/21 04:52:00;;;;;;;10.40;5.70;;;14.40;99.90;;;;;;5112458;27;20405;-90
2023/05/21 04:54:26;;;;;;;10.88;5.85;;;14.40;99.90;;;;;;5112947;27;20437;-91
2023/05/21 04:56:52;;;;;;;9.93;5.65;;;14.40;99.90;;;;;;5113256;27;20400;-89
2023/05/21 04:59:18;;;;;;;10.05;5.50;;;14.40;99.90;;;;;;5113054;27;20421;-90
2023/05/21 05:01:44;;;;;;;10.77;5.18;;;14.40;99.90;;;;;;5115317;27;20424;-90
2023/05/21 05:04:10;;;;;;;9.18;4.78;;;14.50;99.90;;;;;;5116477;27;20415;-91
2023/05/21 05:06:35;;;;;;;8.43;4.73;;;14.80;99.90;;;;;;5117556;27;20439;-91
2023/05/21 05:09:01;;;;;;;8.45;4.45;;;14.50;99.90;;;;;;5116929;27;20432;-90
2023/05/21 05:11:26;;;;;;;9.93;4.40;;;14.80;99.90;;;;;;5117529;27;20419;-90
2023/05/21 05:13:52;;;;;;;10.68;4.70;;;14.60;99.90;;;;;;5117298;27;20732;-90
2023/05/21 05:16:23;;;;;;;10.67;4.50;;;14.70;99.90;;;;;;5116904;27;20473;-91
2023/05/21 05:18:51;;;;;;;9.07;4.93;;;14.80;99.90;;;;;;5117175;27;20401;-91
2023/05/21 05:21:17;;;;;;;11.32;4.68;;;14.90;99.90;;;;;;5115932;27;20467;-90
2023/05/21 05:23:42;;;;;;;10.05;4.38;;;14.80;99.90;;;;;;5117073;27;20455;-90
2023/05/21 05:26:09;;;;;;;8.83;4.50;;;14.90;99.90;;;;;;5116248;27;20426;-90
2023/05/21 05:28:34;;;;;;;9.20;4.43;;;15.10;99.90;;;;;;5117202;27;20963;-91
2023/05/21 05:31:00;;;;;;;9.83;4.20;;;15.10;99.90;;;;;;5116331;27;20408;-90
2023/05/21 05:33:26;;;;;;;10.60;4.60;;;15.20;99.90;;;;;;5116205;27;20404;-90
2023/05/21 05:35:51;;;;;;;7.80;4.30;;;15.20;99.90;;;;;;5116901;27;20946;-90
2023/05/21 05:38:17;;;;;;;9.68;4.25;;;15.40;99.90;;;;;;5115922;27;20403;-91
2023/05/21 05:40:43;;;;;;;10.67;4.40;;;15.20;99.90;;;;;;5117111;27;20958;-91
2023/05/21 05:43:08;;;;;;;10.27;4.65;;;15.40;99.90;;;;;;5115665;27;20416;-91
2023/05/21 05:45:34;;;;;;;10.17;4.70;;;15.20;99.90;;;;;;5116822;27;20401;-91
2023/05/21 05:48:00;;;;;;;8.95;4.43;;;15.20;99.90;;;;;;5115657;27;20396;-90
2023/05/21 05:50:26;;;;;;;11.27;5.03;;;15.30;99.90;;;;;;5116429;27;20495;-90
2023/05/21 05:52:52;;;;;;;9.90;4.85;;;15.30;99.90;;;;;;5116387;27;20548;-90
2023/05/21 05:55:17;;;;;;;7.93;4.40;;;15.30;99.90;;;;;;5116089;27;20408;-91
2023/05/21 05:57:43;;;;;;;9.98;4.43;;;15.30;99.90;;;;;;5116861;27;20400;-91
2023/05/21 06:00:09;;;;;;;10.37;5.30;;;15.40;99.90;;;;;;5115630;27;20409;-91
2023/05/21 06:02:36;;;;;;;8.55;4.78;;;15.50;99.90;;;;;;5116294;27;20477;-91
2023/05/21 06:05:02;;;;;;;9.48;5.28;;;15.50;99.90;;;;;;5115030;27;20430;-91
2023/05/21 06:07:28;;;;;;;8.13;4.55;;;15.70;99.90;;;;;;5116342;27;20421;-91
2023/05/21 06:09:53;;;;;;;9.38;4.55;;;15.60;99.90;;;;;;5115680;27;20437;-90
2023/05/21 06:12:19;;;;;;;8.13;4.40;;;15.90;99.90;;;;;;5115367;27;21009;-90
2023/05/21 06:14:44;;;;;;;9.80;4.60;;;15.60;99.90;;;;;;5114962;27;20422;-91
2023/05/21 06:17:11;;;;;;;9.87;4.77;;;15.70;99.90;;;;;;5115548;27;20413;-92
2023/05/21 06:19:36;;;;;;;10.43;4.63;;;15.80;99.90;;;;;;5116120;27;20403;-91
2023/05/21 06:22:02;;;;;;;9.57;4.68;;;15.90;99.90;;;;;;5115239;27;20508;-91
2023/05/21 06:24:29;;;;;;;10.17;4.33;;;16.00;99.90;;;;;;5116296;27;20457;-92
2023/05/21 06:26:54;;;;;;;10.02;4.60;;;16.10;99.90;;;;;;5114918;27;20473;-90
2023/05/21 06:29:21;;;;;;;9.13;4.40;;;16.40;99.90;;;;;;5115541;27;20496;-90
2023/05/21 06:31:47;;;;;;;8.25;4.18;;;16.40;99.90;;;;;;5115018;27;20397;-90
2023/05/21 06:34:13;;;;;;;8.60;3.90;;;16.50;99.90;;;;;;5115449;27;20404;-92
2023/05/21 06:36:38;;;;;;;8.57;4.00;;;16.60;99.90;;;;;;5115887;27;20420;-90
2023/05/21 06:39:04;;;;;;;8.43;4.00;;;16.70;99.90;;;;;;5114947;27;20405;-89
2023/05/21 06:41:29;;;;;;;6.37;3.73;;;16.90;99.90;;;;;;5115966;27;20783;-91
2023/05/21 06:43:55;;;;;;;8.02;3.83;;;17.00;99.90;;;;;;5114305;27;20463;-92
2023/05/21 06:46:21;;;;;;;6.78;3.45;;;17.10;99.90;;;;;;5115734;27;20492;-91
2023/05/21 06:48:46;;;;;;;6.60;3.67;;;17.30;99.90;;;;;;5115093;27;20721;-91
2023/05/21 06:51:12;;;;;;;6.50;3.60;;;17.50;99.90;;;;;;5115243;27;20401;-91
2023/05/21 06:53:38;;;;;;;7.28;3.10;;;17.60;99.90;;;;;;5115448;27;20514;-92
2023/05/21 06:56:04;;;;;;;7.03;3.70;;;18.10;99.90;;;;;;5114956;27;20400;-91
2023/05/21 06:58:30;;;;;;;6.63;3.00;;;18.00;99.90;;;;;;5115594;27;20412;-92
2023/05/21 07:01:00;;;;;;;5.93;3.10;;;18.20;99.90;;;;;;5113768;27;20392;-90
2023/05/21 07:03:26;;;;;;;7.15;3.22;;;18.20;99.90;;;;;;5115714;27;20781;-90
2023/05/21 07:05:52;;;;;;;6.88;3.40;;;18.40;99.90;;;;;;5114304;27;20385;-90
2023/05/21 07:08:21;;;;;;;6.20;3.17;;;18.20;99.90;;;;;;5115620;27;20389;-92
2023/05/21 07:10:46;;;;;;;6.32;3.33;;;18.00;99.90;;;;;;5115139;27;20401;-91
2023/05/21 07:13:12;;;;;;;6.53;3.33;;;18.10;99.90;;;;;;5114353;27;20437;-92
2023/05/21 07:15:37;;;;;;;7.72;3.70;;;18.30;99.90;;;;;;5114450;27;20408;-89
2023/05/21 07:18:03;;;;;;;7.67;3.40;;;18.30;99.90;;;;;;5114526;27;20397;-91
2023/05/21 07:20:29;;;;;;;6.50;3.80;;;18.40;99.90;;;;;;5115274;27;20448;-91
2023/05/21 07:22:54;;;;;;;7.68;3.50;;;18.00;99.90;;;;;;5113887;27;20421;-92
2023/05/21 07:25:20;;;;;;;6.33;3.30;;;18.10;99.90;;;;;;5114583;27;20420;-91
2023/05/21 07:27:45;;;;;;;5.45;3.13;;;18.10;99.90;;;;;;5113882;27;20895;-91
2023/05/21 07:30:13;;;;;;;7.27;3.30;;;18.10;99.90;;;;;;5114138;27;20397;-91
2023/05/21 07:32:39;;;;;;;6.68;3.45;;;18.00;99.90;;;;;;5114244;27;20397;-90
2023/05/21 07:35:05;;;;;;;7.65;3.38;;;18.10;99.90;;;;;;5113756;27;20423;-92
2023/05/21 07:37:31;;;;;;;8.10;3.13;;;18.20;99.90;;;;;;5114988;27;20392;-91
2023/05/21 07:39:57;;;;;;;6.03;3.13;;;18.30;99.90;;;;;;5113419;27;20855;-91
2023/05/21 07:42:23;;;;;;;5.72;3.33;;;18.10;99.90;;;;;;5114874;27;20512;-90
2023/05/21 07:44:49;;;;;;;5.80;3.00;;;18.10;99.90;;;;;;5113130;27;20415;-91
2023/05/21 07:47:15;;;;;;;7.15;3.20;;;17.70;99.90;;;;;;5114157;27;20405;-92
2023/05/21 07:49:40;;;;;;;6.37;2.83;;;17.80;99.90;;;;;;5114014;27;20465;-91
2023/05/21 07:52:06;;;;;;;4.90;2.90;;;17.80;99.90;;;;;;5113950;27;20411;-91
2023/05/21 07:54:32;;;;;;;6.03;3.20;;;17.90;99.90;;;;;;5114462;27;20789;-91
2023/05/21 07:56:57;;;;;;;5.63;3.00;;;18.00;99.90;;;;;;5113307;27;20397;-92
2023/05/21 07:59:24;;;;;;;6.17;2.90;;;18.20;99.90;;;;;;5114168;27;20409;-91
2023/05/21 08:01:49;;;;;;;5.80;2.63;;;18.10;99.90;;;;;;5113073;27;20405;-91
2023/05/21 08:04:15;;;;;;;6.77;2.63;;;18.30;99.90;;;;;;5114060;27;20392;-92
2023/05/21 08:06:41;;;;;;;4.95;2.17;;;18.20;99.90;;;;;;5113358;27;20775;-91
2023/05/21 08:09:07;;;;;;;6.07;2.60;;;18.50;99.90;;;;;;5114250;27;20767;-92
2023/05/21 08:11:33;;;;;;;5.47;2.40;;;18.40;99.90;;;;;;5113585;27;20890;-91
2023/05/21 08:13:58;;;;;;;5.88;2.55;;;18.40;99.90;;;;;;5112941;27;20389;-92
2023/05/21 08:16:24;;;;;;;5.25;2.50;;;18.40;99.90;;;;;;5113847;27;20967;-91
2023/05/21 08:18:50;;;;;;;6.43;2.50;;;18.70;99.90;;;;;;5112638;27;20412;-90
2023/05/21 08:21:16;;;;;;;5.15;2.20;;;18.80;99.90;;;;;;5113952;27;20421;-91
2023/05/21 08:23:42;;;;;;;5.37;2.30;;;18.80;99.90;;;;;;5112130;27;20791;-93
2023/05/21 08:26:08;;;;;;;5.17;2.00;;;18.90;99.90;;;;;;5113543;27;20476;-91
2023/05/21 08:28:37;;;;;;;6.15;2.15;;;19.30;99.90;;;;;;5113512;27;20511;-92
2023/05/21 08:31:02;;;;;;;3.95;1.77;;;19.40;99.90;;;;;;5129841;27;20395;-92
2023/05/21 08:33:28;;;;;;;5.40;2.00;;;19.50;99.90;;;;;;5113383;27;21010;-92
2023/05/21 08:35:53;;;;;;;4.67;2.07;;;19.20;99.90;;;;;;5111906;27;20401;-91
2023/05/21 08:38:19;;;;;;;6.40;2.25;;;19.10;99.90;;;;;;5113615;27;20396;-92
2023/05/21 08:40:46;;;;;;;5.67;2.00;;;19.00;99.90;;;;;;5112745;27;20804;-90
2023/05/21 08:43:15;;;;;;;5.57;2.10;;;18.90;99.90;;;;;;5113670;27;20433;-92
2023/05/21 08:45:43;;;;;;;5.22;2.00;;;19.20;99.90;;;;;;5112744;27;20409;-91
2023/05/21 08:48:12;;;;;;;5.55;1.95;;;19.00;99.90;;;;;;5113273;27;20437;-91
2023/05/21 08:50:39;;;;;;;6.10;1.98;;;18.90;99.90;;;;;;5113132;27;20422;-91
2023/05/21 08:53:05;;;;;;;6.85;2.30;;;19.00;99.90;;;;;;5112459;27;20461;-91
2023/05/21 08:55:31;;;;;;;5.95;2.20;;;19.10;99.90;;;;;;5113693;27;20400;-92
2023/05/21 08:57:57;;;;;;;5.32;1.80;;;19.00;99.90;;;;;;5112112;27;20921;-91
2023/05/21 09:00:23;;;;;;;4.50;2.07;;;19.30;99.90;;;;;;5113717;27;20643;-90
2023/05/21 09:02:53;;;;;;;5.47;2.10;;;19.20;99.90;;;;;;5112552;27;20467;-91
2023/05/21 09:05:19;;;;;;;6.50;2.13;;;19.30;99.30;;;;;;5113260;27;20424;-92
2023/05/21 09:07:54;;;;;;;5.25;2.20;;;19.40;99.90;;;;;;5112956;27;20396;-92
2023/05/21 09:10:25;;;;;;;4.85;2.30;;;19.70;97.90;;;;;;5112249;27;20819;-91
2023/05/21 09:12:52;;;;;;;6.00;2.13;;;19.90;99.90;;;;;;5113354;27;20393;-91
2023/05/21 09:15:18;;;;;;;6.50;1.98;;;20.00;97.60;;;;;;5111810;27;20405;-91
2023/05/21 09:17:47;;;;;;;4.28;1.90;;;20.00;97.20;;;;;;5113210;27;20389;-90
2023/05/21 09:20:15;;;;;;;4.63;1.83;;;20.20;96.70;;;;;;5112164;27;20489;-92
2023/05/21 09:22:45;;;;;;;3.83;1.60;;;20.20;96.50;;;;;;5112250;27;21014;-91
2023/05/21 09:25:13;;;;;;;6.78;2.17;;;20.40;93.40;;;;;;5112541;27;20417;-91
2023/05/21 09:27:39;;;;;;;4.22;1.65;;;20.10;94.60;;;;;;5112038;27;20424;-91
2023/05/21 09:30:10;;;;;;;5.93;2.00;;;20.10;94.00;;;;;;5112977;27;20439;-93
2023/05/21 09:32:36;;;;;;;6.45;2.00;;;20.20;93.60;;;;;;5111902;27;20397;-90
2023/05/21 09:35:07;;;;;;;4.40;1.88;;;20.30;92.30;;;;;;5113062;27;20438;-91
2023/05/21 09:37:39;;;;;;;4.55;2.15;;;20.40;94.90;;;;;;5112453;27;20912;-92
2023/05/21 09:40:18;;;;;;;6.93;2.20;;;20.50;95.30;;;;;;5112530;27;20441;-92
2023/05/21 09:42:52;;;;;;;6.25;2.20;;;20.70;94.40;;;;;;5112694;27;20425;-90
2023/05/21 09:45:19;;;;;;;7.00;2.53;;;20.70;90.50;;;;;;5112067;27;20951;-93
2023/05/21 09:47:46;;;;;;;5.13;2.47;;;20.80;95.80;;;;;;5114581;27;20446;-91
2023/05/21 09:50:12;;;;;;;5.75;2.50;;;20.80;91.50;;;;;;5115912;27;20488;-92
2023/05/21 09:52:38;;;;;;;5.45;2.40;;;21.00;92.00;;;;;;5117346;27;20400;-92
2023/05/21 09:55:11;;;;;;;4.35;1.90;;;20.70;90.70;;;;;;5116481;27;20755;-91
2023/05/21 09:57:41;;;;;;;4.00;2.00;;;20.80;92.30;;;;;;5115575;27;20405;-91
2023/05/21 10:00:09;;;;;;;5.43;2.28;;;20.80;93.50;;;;;;5116349;27;20484;-91
2023/05/21 10:02:36;;;;;;;4.90;2.05;;;20.90;92.30;;;;;;5115110;27;20466;-92
2023/05/21 10:05:07;;;;;;;5.07;2.10;;;20.80;95.60;;;;;;5116586;27;20401;-91
2023/05/21 10:07:35;;;;;;;5.30;1.75;;;21.00;91.60;;;;;;5115601;27;20408;-90
2023/05/21 10:10:03;;;;;;;6.22;2.08;;;20.80;95.70;;;;;;5116347;27;20435;-91
2023/05/21 10:12:30;;;;;;;5.38;1.83;;;21.20;97.00;;;;;;5115746;27;20963;-92
2023/05/21 10:15:02;;;;;;;5.22;1.83;;;21.60;95.30;;;;;;5132580;27;20420;-91
2023/05/21 10:17:29;;;;;;;5.32;1.60;;;22.20;95.00;;;;;;5115841;27;20397;-92
2023/05/21 10:19:55;;;;;;;4.57;1.80;;;22.50;90.80;;;;;;5114854;27;20457;-92
2023/05/21 10:22:25;;;;;;;5.80;2.10;;;22.90;80.30;;;;;;5116025;27;20448;-92
2023/05/21 10:24:52;;;;;;;4.53;1.70;;;23.40;76.00;;;;;;5128278;27;20414;-92
2023/05/21 10:27:19;;;;;;;5.05;1.90;;;23.80;74.80;;;;;;5112555;27;20407;-92
2023/05/21 10:29:45;;;;;;;4.65;1.80;;;23.90;69.70;;;;;;5112250;27;20403;-92
2023/05/21 10:32:13;;;;;;;4.50;1.88;;;24.00;63.90;;;;;;5112034;27;20554;-93
2023/05/21 10:34:40;;;;;;;6.65;2.33;;;24.10;63.50;;;;;;5112545;27;20410;-91
2023/05/21 10:37:08;;;;;;;6.47;2.15;;;24.20;58.60;;;;;;5111198;27;20402;-92
2023/05/21 10:39:35;;;;;;;4.27;1.97;;;24.20;57.50;;;;;;5112602;27;20402;-93
2023/05/21 10:42:23;;;;;;;5.15;2.10;;;24.10;59.30;;;;;;5110666;27;20432;-92
2023/05/21 10:44:55;;;;;;;4.35;2.00;;;24.10;61.80;;;;;;5111841;27;20407;-91
2023/05/21 10:47:51;;;;;;;4.57;2.03;;;24.30;59.10;;;;;;5111578;27;20409;-92
2023/05/21 10:50:51;;;;;;;3.78;1.80;;;24.40;59.20;;;;;;5111047;27;20501;-92
2023/05/21 10:53:35;;;;;;;4.60;1.70;;;24.70;61.30;;;;;;5112063;27;20478;-91
2023/05/21 10:56:16;;;;;;;5.32;1.80;;;24.70;57.50;;;;;;5112096;27;20893;-91
2023/05/21 10:59:02;;;;;;;4.18;1.63;;;24.80;56.90;;;;;;5110751;28;20978;-91
2023/05/21 11:01:32;;;;;;;4.30;1.50;;;24.80;55.80;;;;;;5112255;27;20418;-92
2023/05/21 11:03:58;;;;;;;5.68;1.80;;;25.00;59.20;;;;;;5110575;27;20403;-92
2023/05/21 11:06:25;;;;;;;5.67;1.67;;;25.30;56.00;;;;;;5111529;27;20406;-91
2023/05/21 11:08:54;;;;;;;3.97;1.50;;;25.80;55.70;;;;;;5111456;27;20448;-92
2023/05/21 11:11:43;;;;;;;4.10;1.80;;;25.50;54.30;;;;;;5111274;27;20410;-93
2023/05/21 11:14:35;;;;;;;4.20;1.80;;;25.40;55.70;;;;;;5111544;27;20429;-91
2023/05/21 11:17:13;;;;;;;4.38;1.95;;;25.50;56.30;;;;;;5110785;27;20817;-92
2023/05/21 11:19:43;;;;;;;3.97;1.70;;;25.70;53.00;;;;;;5110919;27;20501;-92
2023/05/21 11:22:20;;;;;;;5.30;1.90;;;25.80;54.60;;;;;;5111151;27;20950;-91
2023/05/21 11:24:45;;;;;;;4.57;1.80;;;25.80;52.80;;;;;;5110102;27;20403;-93
2023/05/21 11:27:11;;;;;;;4.82;1.80;;;26.10;52.00;;;;;;5111572;27;20573;-92
2023/05/21 11:29:39;;;;;;;5.37;1.90;;;26.00;50.90;;;;;;5110389;27;20411;-91
2023/05/21 11:32:08;;;;;;;4.75;2.00;;;26.10;52.10;;;;;;5111252;27;20439;-91
2023/05/21 11:34:44;;;;;;;5.18;2.20;;;26.00;51.00;;;;;;5110350;27;20387;-93
2023/05/21 11:37:23;;;;;;;4.63;1.93;;;25.90;54.50;;;;;;5110212;27;20453;-92
2023/05/21 11:39:50;;;;;;;5.13;1.85;;;25.80;51.90;;;;;;5111228;27;20499;-91
2023/05/21 11:42:40;;;;;;;4.50;2.00;;;25.80;54.60;;;;;;5110168;27;20971;-91
2023/05/21 11:45:07;;;;;;;7.00;2.25;;;26.00;50.80;;;;;;5111062;27;20399;-94
2023/05/21 11:47:32;;;;;;;5.38;1.70;;;26.10;51.40;;;;;;5110154;27;20398;-93
2023/05/21 11:50:00;;;;;;;5.95;2.38;;;26.20;51.10;;;;;;5110321;27;20956;-92
2023/05/21 11:52:29;;;;;;;6.30;2.10;;;26.50;50.90;;;;;;5111034;27;20745;-92
2023/05/21 11:54:56;;;;;;;4.70;2.23;;;26.50;49.80;;;;;;5109798;27;20391;-92
2023/05/21 11:57:29;;;;;;;4.40;2.50;;;26.60;48.30;;;;;;5111427;27;20445;-90
2023/05/21 11:59:57;;;;;;;5.55;2.40;;;26.20;48.40;;;;;;5109442;27;20944;-92
2023/05/21 12:02:26;;;;;;;6.05;2.83;;;26.20;53.30;;;;;;5110615;27;20426;-92
2023/05/21 12:04:51;;;;;;;5.32;2.70;;;26.20;52.30;;;;;;5109844;27;20795;-92
2023/05/21 12:07:18;;;;;;;6.23;2.60;;;26.30;51.40;;;;;;5110255;27;20426;-92
2023/05/21 12:09:46;;;;;;;5.03;2.33;;;26.50;52.60;;;;;;5110152;27;20406;-90
2023/05/21 12:12:15;;;;;;;5.00;1.90;;;26.90;51.60;;;;;;5109388;27;21175;-91
2023/05/21 12:14:47;;;;;;;5.38;2.67;;;26.90;52.20;;;;;;5110570;27;20829;-93
2023/05/21 12:17:18;;;;;;;7.15;2.83;;;26.70;48.90;;;;;;5109213;27;20450;-92
2023/05/21 12:19:45;;;;;;;4.97;2.70;;;26.40;51.20;;;;;;5110721;27;20860;-91
2023/05/21 12:22:11;;;;;;;6.43;2.67;;;25.90;50.90;;;;;;5109816;27;20456;-92
2023/05/21 12:24:37;;;;;;;4.97;2.55;;;25.70;54.40;;;;;;5109748;27;20502;-93
2023/05/21 12:27:09;;;;;;;5.30;2.97;;;25.80;55.40;;;;;;5110184;27;20834;-92
2023/05/21 12:29:39;;;;;;;5.45;2.95;;;25.60;53.40;;;;;;5109486;27;20830;-92
2023/05/21 12:32:08;;;;;;;5.72;3.00;;;25.90;56.70;;;;;;5110705;27;21025;-93
2023/05/21 12:34:51;;;;;;;6.00;2.88;;;26.20;53.20;;;;;;5109356;27;20455;-91
2023/05/21 12:37:25;;;;;;;6.17;3.43;;;26.40;55.20;;;;;;5110315;28;20431;-91
2023/05/21 12:39:53;;;;;;;5.95;3.65;;;26.50;54.30;;;;;;5109770;27;20909;-92
2023/05/21 12:42:26;;;;;;;6.07;3.30;;;26.80;50.80;;;;;;5109045;27;20434;-91
2023/05/21 12:44:53;;;;;;;5.57;3.67;;;26.80;51.00;;;;;;5110183;27;20849;-91
2023/05/21 12:47:21;;;;;;;7.15;3.60;;;27.00;51.70;;;;;;5109197;27;20394;-91